Oppland — V2QM7 — position and weather

sailwx.info

Track history (hours):
 
Tides and Currents Weather Stations Pressure Air Temp Water Temp Dewpoint Dewpoint Depression Visibility Wind Speed Wind Dir Waves Ship Positions

Oppland

Last reported at 2018-Feb-20 23:11 UTC. Time now 2018-Feb-21 00:02 UTC.
Position N 35°58' W 005°49'.

Length 107 m; draft 5.1 m.

Type: Cargo ship. MMSI: 305716000.

Date/timePositionNaut miles runAvg speedWind from/ knotsBaromVisibWave heightAir tempDewpointWater temp
2018-Feb-20 23:11N 35°58' W 005°49'510.5
2018-Feb-20 22:45N 35°58' W 005°43'3 9.7
2018-Feb-20 22:26N 35°58' W 005°39'4 8.7
2018-Feb-20 22:00N 35°58' W 005°35'4 8.5
2018-Feb-20 21:30N 35°59' W 005°30'4 7.6
2018-Feb-20 21:00N 35°60' W 005°25'5 9.4
2018-Feb-20 20:30N 35°57' W 005°20'4 6.9
2018-Feb-20 20:00N 35°54' W 005°19'0 0.3
2018-Feb-20 19:28N 35°54' W 005°19'0 0.0
2018-Feb-20 18:58N 35°54' W 005°19'0 0.0
2018-Feb-20 18:28N 35°54' W 005°19'0 0.0
2018-Feb-20 17:58N 35°54' W 005°19'0 0.0
2018-Feb-20 17:21N 35°54' W 005°19'0 1.0
2018-Feb-20 17:00N 35°54' W 005°19'1 2.1
2018-Feb-20 16:30N 35°55' W 005°19'510.1
2018-Feb-20 16:00N 35°57' W 005°24'5 0.2
2018-Feb-19 12:12N 35°56' W 005°31'2 9.6
2018-Feb-19 12:00N 35°58' W 005°29'4 8.3
2018-Feb-19 11:30N 35°60' W 005°25'4 8.0
2018-Feb-19 11:00N 36°00' W 005°20'4 8.2
2018-Feb-19 10:30N 36°01' W 005°15'21410.5
2018-Feb-18 14:05N 37°14' W 001°04'111.8
2018-Feb-18 13:59N 37°15' W 001°02'611.9
2018-Feb-18 13:26N 37°19' W 000°56'511.8
2018-Feb-18 13:00N 37°22' W 000°51'611.7
2018-Feb-18 12:30N 37°26' W 000°46'611.5
2018-Feb-18 11:58N 37°30' W 000°40'510.9
2018-Feb-18 11:30N 37°33' W 000°35'510.4
2018-Feb-18 11:00N 37°37' W 000°31'510.4
2018-Feb-18 10:30N 37°42' W 000°28'910.2
2018-Feb-18 09:35N 37°50' W 000°21'110.2
2018-Feb-18 09:30N 37°50' W 000°20'910.3
2018-Feb-18 08:40N 37°57' W 000°14'210.8
2018-Feb-18 08:29N 37°59' W 000°13'86 9.8
2018-Feb-17 23:42N 39°25' W 000°04'311.2
2018-Feb-17 23:28N 39°27' W 000°05'511.1
2018-Feb-17 23:00N 39°32' W 000°09'510.9
2018-Feb-17 22:30N 39°37' W 000°11'2 0.1
2018-Feb-17 01:43N 39°38' W 000°12'0 0.0
2018-Feb-16 13:59N 39°38' W 000°12'0 0.0
2018-Feb-16 12:41N 39°38' W 000°12'0 0.0
2018-Feb-16 08:23N 39°38' W 000°12'0 0.0
2018-Feb-16 07:50N 39°38' W 000°12'0 0.0
2018-Feb-16 07:23N 39°38' W 000°12'0 0.0
2018-Feb-16 06:50N 39°38' W 000°12'0 0.0
2018-Feb-16 05:44N 39°38' W 000°12'0 0.0
2018-Feb-16 05:26N 39°38' W 000°12'0 0.0
2018-Feb-16 04:29N 39°38' W 000°12'0 0.0
2018-Feb-16 03:59N 39°38' W 000°12'0 0.0
2018-Feb-16 03:29N 39°38' W 000°12'0 0.0
2018-Feb-16 02:59N 39°38' W 000°12'0 0.0
2018-Feb-16 02:29N 39°38' W 000°12'0 0.0
2018-Feb-16 01:59N 39°38' W 000°12'0 0.0
2018-Feb-16 01:08N 39°38' W 000°12'0 0.0
2018-Feb-16 00:59N 39°38' W 000°12'0 0.0
2018-Feb-16 00:29N 39°38' W 000°12'0 0.0
2018-Feb-15 23:17N 39°38' W 000°12'0 0.0
2018-Feb-15 22:47N 39°38' W 000°12'0 0.0
2018-Feb-15 22:29N 39°38' W 000°12'0 0.0
2018-Feb-15 21:59N 39°38' W 000°12'0 0.0
2018-Feb-15 19:53N 39°38' W 000°12'0 0.0
2018-Feb-15 18:47N 39°38' W 000°12'0 0.0
2018-Feb-15 17:11N 39°38' W 000°12'0 0.0
2018-Feb-15 16:59N 39°38' W 000°12'0 0.0
2018-Feb-15 16:11N 39°38' W 000°12'0 0.0
2018-Feb-15 15:56N 39°38' W 000°12'0 0.0
2018-Feb-14 23:27N 39°38' W 000°12'0 0.0
2018-Feb-14 05:21N 39°38' W 000°12'0 0.0
2018-Feb-13 15:58N 39°38' W 000°12'7810.2
2018-Feb-13 08:17N 39°19' E 001°26'310.9
2018-Feb-13 07:59N 39°18' E 001°30'4311.0
2018-Feb-13 04:04N 39°07' E 002°23'111.4
2018-Feb-13 03:58N 39°07' E 002°25'511.3
2018-Feb-13 03:30N 39°06' E 002°32'611.3
2018-Feb-13 03:00N 39°05' E 002°39'1311.4
2018-Feb-13 01:53N 39°02' E 002°55'411.4
2018-Feb-13 01:30N 39°01' E 003°00'  
Track history (hours):
 
Tides and Currents Weather Stations Pressure Air Temp Water Temp Dewpoint Dewpoint Depression Visibility Wind Speed Wind Dir Waves Ship Positions

Oppland

Last reported at 2018-Feb-20 23:11 UTC. Time now 2018-Feb-21 00:02 UTC.
Position N 35°58' W 005°49'.

Length 107 m; draft 5.1 m.

Type: Cargo ship. MMSI: 305716000.

Date/timePositionNaut miles runAvg speedWind from/ knotsBaromVisibWave heightAir tempDewpointWater temp
2018-Feb-20 23:11N 35°58' W 005°49'510.5
2018-Feb-20 22:45N 35°58' W 005°43'3 9.7
2018-Feb-20 22:26N 35°58' W 005°39'4 8.7
2018-Feb-20 22:00N 35°58' W 005°35'4 8.5
2018-Feb-20 21:30N 35°59' W 005°30'4 7.6
2018-Feb-20 21:00N 35°60' W 005°25'5 9.4
2018-Feb-20 20:30N 35°57' W 005°20'4 6.9
2018-Feb-20 20:00N 35°54' W 005°19'0 0.3
2018-Feb-20 19:28N 35°54' W 005°19'0 0.0
2018-Feb-20 18:58N 35°54' W 005°19'0 0.0
2018-Feb-20 18:28N 35°54' W 005°19'0 0.0
2018-Feb-20 17:58N 35°54' W 005°19'0 0.0
2018-Feb-20 17:21N 35°54' W 005°19'0 1.0
2018-Feb-20 17:00N 35°54' W 005°19'1 2.1
2018-Feb-20 16:30N 35°55' W 005°19'510.1
2018-Feb-20 16:00N 35°57' W 005°24'5 0.2
2018-Feb-19 12:12N 35°56' W 005°31'2 9.6
2018-Feb-19 12:00N 35°58' W 005°29'4 8.3
2018-Feb-19 11:30N 35°60' W 005°25'4 8.0
2018-Feb-19 11:00N 36°00' W 005°20'4 8.2
2018-Feb-19 10:30N 36°01' W 005°15'21410.5
2018-Feb-18 14:05N 37°14' W 001°04'111.8
2018-Feb-18 13:59N 37°15' W 001°02'611.9
2018-Feb-18 13:26N 37°19' W 000°56'511.8
2018-Feb-18 13:00N 37°22' W 000°51'611.7
2018-Feb-18 12:30N 37°26' W 000°46'611.5
2018-Feb-18 11:58N 37°30' W 000°40'510.9
2018-Feb-18 11:30N 37°33' W 000°35'510.4
2018-Feb-18 11:00N 37°37' W 000°31'510.4
2018-Feb-18 10:30N 37°42' W 000°28'910.2
2018-Feb-18 09:35N 37°50' W 000°21'110.2
2018-Feb-18 09:30N 37°50' W 000°20'910.3
2018-Feb-18 08:40N 37°57' W 000°14'210.8
2018-Feb-18 08:29N 37°59' W 000°13'86 9.8
2018-Feb-17 23:42N 39°25' W 000°04'311.2
2018-Feb-17 23:28N 39°27' W 000°05'511.1
2018-Feb-17 23:00N 39°32' W 000°09'510.9
2018-Feb-17 22:30N 39°37' W 000°11'2 0.1
2018-Feb-17 01:43N 39°38' W 000°12'0 0.0
2018-Feb-16 13:59N 39°38' W 000°12'0 0.0
2018-Feb-16 12:41N 39°38' W 000°12'0 0.0
2018-Feb-16 08:23N 39°38' W 000°12'0 0.0
2018-Feb-16 07:50N 39°38' W 000°12'0 0.0
2018-Feb-16 07:23N 39°38' W 000°12'0 0.0
2018-Feb-16 06:50N 39°38' W 000°12'0 0.0
2018-Feb-16 05:44N 39°38' W 000°12'0 0.0
2018-Feb-16 05:26N 39°38' W 000°12'0 0.0
2018-Feb-16 04:29N 39°38' W 000°12'0 0.0
2018-Feb-16 03:59N 39°38' W 000°12'0 0.0
2018-Feb-16 03:29N 39°38' W 000°12'0 0.0
2018-Feb-16 02:59N 39°38' W 000°12'0 0.0
2018-Feb-16 02:29N 39°38' W 000°12'0 0.0
2018-Feb-16 01:59N 39°38' W 000°12'0 0.0
2018-Feb-16 01:08N 39°38' W 000°12'0 0.0
2018-Feb-16 00:59N 39°38' W 000°12'0 0.0
2018-Feb-16 00:29N 39°38' W 000°12'0 0.0
2018-Feb-15 23:17N 39°38' W 000°12'0 0.0
2018-Feb-15 22:47N 39°38' W 000°12'0 0.0
2018-Feb-15 22:29N 39°38' W 000°12'0 0.0
2018-Feb-15 21:59N 39°38' W 000°12'0 0.0
2018-Feb-15 19:53N 39°38' W 000°12'0 0.0
2018-Feb-15 18:47N 39°38' W 000°12'0 0.0
2018-Feb-15 17:11N 39°38' W 000°12'0 0.0
2018-Feb-15 16:59N 39°38' W 000°12'0 0.0
2018-Feb-15 16:11N 39°38' W 000°12'0 0.0
2018-Feb-15 15:56N 39°38' W 000°12'0 0.0
2018-Feb-14 23:27N 39°38' W 000°12'0 0.0
2018-Feb-14 05:21N 39°38' W 000°12'0 0.0
2018-Feb-13 15:58N 39°38' W 000°12'7810.2
2018-Feb-13 08:17N 39°19' E 001°26'310.9
2018-Feb-13 07:59N 39°18' E 001°30'4311.0
2018-Feb-13 04:04N 39°07' E 002°23'111.4
2018-Feb-13 03:58N 39°07' E 002°25'511.3
2018-Feb-13 03:30N 39°06' E 002°32'611.3
2018-Feb-13 03:00N 39°05' E 002°39'1311.4
2018-Feb-13 01:53N 39°02' E 002°55'411.4
2018-Feb-13 01:30N 39°01' E 003°00'  

Dump ship's entire track history